Time;durP1;ratioP1;P1;durP2;ratioP2;P2;SDS_P1;SDS_P2;PMS_P1;PMS_P2;Temp;Humidity;BMP_temperature;BMP_pressure;BME280_temperature;BME280_humidity;BME280_pressure;Samples;Min_cycle;Max_cycle;Signal;HPM_P1;HPM_P2
2023/10/03 00:02:24;;;;;;;23.73;10.80;;;12.70;99.90;;;;;;5074263;28;20032;-63
2023/10/03 00:04:51;;;;;;;26.02;11.68;;;12.70;99.90;;;;;;5074324;28;20358;-63
2023/10/03 00:07:17;;;;;;;18.95;10.52;;;12.70;99.90;;;;;;5074216;28;20039;-64
2023/10/03 00:09:44;;;;;;;18.90;10.98;;;12.70;99.90;;;;;;5074563;28;20559;-64
2023/10/03 00:12:10;;;;;;;18.17;10.25;;;12.70;99.90;;;;;;5074056;28;20067;-63
2023/10/03 00:14:36;;;;;;;24.15;11.30;;;12.70;99.90;;;;;;5074040;28;20031;-64
2023/10/03 00:17:02;;;;;;;24.92;10.05;;;12.60;99.90;;;;;;5074317;28;20456;-64
2023/10/03 00:19:27;;;;;;;21.15;10.27;;;12.60;99.90;;;;;;5056368;28;20021;-64
2023/10/03 00:21:53;;;;;;;22.13;10.82;;;12.60;99.90;;;;;;5074086;28;20559;-65
2023/10/03 00:24:19;;;;;;;23.90;11.50;;;12.60;99.90;;;;;;5075039;28;20025;-65
2023/10/03 00:26:44;;;;;;;17.85;10.98;;;12.50;99.90;;;;;;5074683;28;20035;-64
2023/10/03 00:29:23;;;;;;;24.77;12.00;;;12.50;99.90;;;;;;5075887;28;20039;-64
2023/10/03 00:31:49;;;;;;;23.52;12.35;;;12.50;99.90;;;;;;5076044;28;20084;-64
2023/10/03 00:34:15;;;;;;;21.77;11.65;;;12.50;99.90;;;;;;5077078;28;20040;-64
2023/10/03 00:36:41;;;;;;;21.05;11.57;;;12.50;99.90;;;;;;5075921;28;20101;-64
2023/10/03 00:39:07;;;;;;;21.13;11.52;;;12.50;99.90;;;;;;5076465;28;20028;-65
2023/10/03 00:41:34;;;;;;;19.83;11.05;;;12.50;99.90;;;;;;5073909;28;20040;-64
2023/10/03 00:44:04;;;;;;;21.80;11.52;;;12.60;99.90;;;;;;5073919;28;20024;-65
2023/10/03 00:46:31;;;;;;;21.85;11.85;;;12.60;99.90;;;;;;5074158;28;20178;-64
2023/10/03 00:48:57;;;;;;;31.27;11.60;;;12.60;99.90;;;;;;5073898;28;20107;-64
2023/10/03 00:51:24;;;;;;;21.67;11.05;;;12.60;99.90;;;;;;5074054;28;20100;-64
2023/10/03 00:53:51;;;;;;;21.85;11.10;;;12.60;99.90;;;;;;5073339;28;20392;-64
2023/10/03 00:56:18;;;;;;;21.00;11.88;;;12.60;99.90;;;;;;5073893;28;20036;-64
2023/10/03 00:58:44;;;;;;;27.33;12.77;;;12.60;99.90;;;;;;5055813;28;20025;-64
2023/10/03 01:01:11;;;;;;;27.20;12.82;;;12.60;99.90;;;;;;5073755;28;20034;-64
2023/10/03 01:03:38;;;;;;;26.80;12.55;;;12.70;99.90;;;;;;5073567;28;20044;-64
2023/10/03 01:06:07;;;;;;;26.00;13.32;;;12.70;99.90;;;;;;5077468;28;20021;-64
2023/10/03 01:08:36;;;;;;;25.40;13.40;;;12.80;99.90;;;;;;5077791;28;20055;-64
2023/10/03 01:11:07;;;;;;;30.17;13.43;;;12.80;99.90;;;;;;5077531;28;20063;-64
2023/10/03 01:13:33;;;;;;;23.38;13.82;;;12.90;99.90;;;;;;5077588;28;20358;-64
2023/10/03 01:15:59;;;;;;;23.02;13.20;;;12.90;99.90;;;;;;5077586;28;20035;-64
2023/10/03 01:18:26;;;;;;;24.25;14.25;;;12.90;99.90;;;;;;5077095;28;20480;-64
2023/10/03 01:20:57;;;;;;;23.50;13.57;;;13.00;99.90;;;;;;5064653;28;20448;-65
2023/10/03 01:23:26;;;;;;;27.80;14.90;;;13.00;99.90;;;;;;5059477;28;20491;-64
2023/10/03 01:25:52;;;;;;;31.13;16.52;;;13.00;99.90;;;;;;5068596;28;20427;-64
2023/10/03 01:28:17;;;;;;;24.48;13.32;;;13.00;99.90;;;;;;5039385;28;20036;-64
2023/10/03 01:30:43;;;;;;;30.05;15.88;;;13.10;99.90;;;;;;5057067;28;20067;-64
2023/10/03 01:33:12;;;;;;;25.38;13.98;;;13.10;99.90;;;;;;5057048;28;20040;-64
2023/10/03 01:35:38;;;;;;;26.93;14.57;;;13.10;99.90;;;;;;5057212;28;20033;-64
2023/10/03 01:38:07;;;;;;;29.05;16.02;;;13.20;99.90;;;;;;5065449;28;20286;-64
2023/10/03 01:40:32;;;;;;;30.20;14.65;;;13.20;99.90;;;;;;5077016;28;20075;-64
2023/10/03 01:42:58;;;;;;;25.95;15.30;;;13.30;99.90;;;;;;5077081;28;20480;-64
2023/10/03 01:45:26;;;;;;;30.55;15.43;;;13.30;99.90;;;;;;5078253;28;20056;-64
2023/10/03 01:47:52;;;;;;;32.63;15.38;;;13.40;99.90;;;;;;5058889;28;20024;-64
2023/10/03 01:50:21;;;;;;;30.85;15.85;;;13.40;99.90;;;;;;5076873;28;20053;-64
2023/10/03 01:52:48;;;;;;;33.67;16.35;;;13.40;99.90;;;;;;5076676;28;20032;-64
2023/10/03 01:55:17;;;;;;;34.42;14.45;;;13.40;99.90;;;;;;5058807;28;20035;-63
2023/10/03 01:57:47;;;;;;;30.73;15.88;;;13.40;99.90;;;;;;5076263;28;20380;-64
2023/10/03 02:02:50;;;;;;;29.35;15.75;;;13.40;99.90;;;;;;5076687;28;20074;-64
2023/10/03 02:05:23;;;;;;;30.75;15.07;;;13.40;99.90;;;;;;5058584;28;20032;-64
2023/10/03 02:07:51;;;;;;;28.83;15.80;;;13.40;99.90;;;;;;5076487;28;20105;-64
2023/10/03 02:10:17;;;;;;;33.08;16.27;;;13.40;99.90;;;;;;5076411;28;20025;-64
2023/10/03 02:12:53;;;;;;;30.05;15.88;;;13.40;99.90;;;;;;5076650;28;20367;-64
2023/10/03 02:15:23;;;;;;;27.58;15.38;;;13.30;99.90;;;;;;5077991;28;20025;-64
2023/10/03 02:17:53;;;;;;;23.85;15.02;;;13.30;99.90;;;;;;5078620;28;20051;-64
2023/10/03 02:20:20;;;;;;;26.38;16.17;;;13.20;99.90;;;;;;5087205;28;20469;-64
2023/10/03 02:22:55;;;;;;;29.70;16.52;;;13.20;99.90;;;;;;5080841;28;20033;-64
2023/10/03 02:25:24;;;;;;;31.35;15.68;;;13.10;99.90;;;;;;5059577;28;20029;-65
2023/10/03 02:27:50;;;;;;;31.43;16.43;;;13.10;99.90;;;;;;5077195;28;20035;-64
2023/10/03 02:30:23;;;;;;;30.75;16.90;;;13.00;99.90;;;;;;5075787;28;20112;-64
2023/10/03 02:32:52;;;;;;;28.08;16.38;;;13.00;99.90;;;;;;5076409;28;20031;-64
2023/10/03 02:35:25;;;;;;;31.67;16.33;;;13.00;99.90;;;;;;5058747;28;20032;-63
2023/10/03 02:37:52;;;;;;;32.20;17.17;;;13.00;99.90;;;;;;5075758;28;20040;-63
2023/10/03 02:40:22;;;;;;;30.17;16.83;;;13.00;99.90;;;;;;5079565;28;20080;-64
2023/10/03 02:42:51;;;;;;;29.88;16.50;;;13.00;99.90;;;;;;5075883;28;20078;-65
2023/10/03 02:45:22;;;;;;;31.67;17.55;;;13.00;99.90;;;;;;5075615;28;20033;-64
2023/10/03 02:47:48;;;;;;;31.27;16.17;;;13.00;99.90;;;;;;5057764;28;20031;-64
2023/10/03 02:50:15;;;;;;;28.92;15.90;;;13.00;99.90;;;;;;5075669;28;20029;-63
2023/10/03 02:52:42;;;;;;;25.42;15.45;;;13.00;99.90;;;;;;5075789;28;20031;-64
2023/10/03 02:55:14;;;;;;;25.02;14.65;;;13.00;99.90;;;;;;5075894;28;20024;-64
2023/10/03 02:57:40;;;;;;;30.05;15.35;;;12.90;99.90;;;;;;5075609;28;20020;-64
2023/10/03 03:00:13;;;;;;;27.15;15.20;;;12.90;99.90;;;;;;5075243;28;20040;-64
2023/10/03 03:02:47;;;;;;;34.03;16.20;;;12.90;99.90;;;;;;5075437;28;20024;-63
2023/10/03 03:05:17;;;;;;;31.10;16.17;;;12.90;99.90;;;;;;5075569;28;20036;-63
2023/10/03 03:07:48;;;;;;;30.45;14.75;;;13.00;99.90;;;;;;5075603;28;20141;-63
2023/10/03 03:10:17;;;;;;;29.17;15.80;;;12.90;99.90;;;;;;5075364;28;20024;-64
2023/10/03 03:12:44;;;;;;;27.55;14.55;;;12.80;99.90;;;;;;5075387;28;20031;-64
2023/10/03 03:15:27;;;;;;;28.85;16.20;;;12.70;99.90;;;;;;5075377;28;20031;-64
2023/10/03 03:17:53;;;;;;;29.63;16.30;;;12.70;99.90;;;;;;5075258;28;20020;-64
2023/10/03 03:20:25;;;;;;;33.40;17.15;;;12.70;99.90;;;;;;5057228;28;20052;-64
2023/10/03 03:22:52;;;;;;;28.27;14.88;;;12.70;99.90;;;;;;5075135;28;20086;-64
2023/10/03 03:25:42;;;;;;;29.40;15.57;;;12.70;99.90;;;;;;5074779;28;20456;-64
2023/10/03 03:28:12;;;;;;;27.60;15.52;;;12.60;99.90;;;;;;5074315;28;20466;-64
2023/10/03 03:30:45;;;;;;;30.40;16.88;;;12.60;99.90;;;;;;5076922;28;20037;-64
2023/10/03 03:33:20;;;;;;;29.73;15.05;;;12.60;99.90;;;;;;5074938;28;20028;-64
2023/10/03 03:35:47;;;;;;;26.10;14.77;;;12.60;99.90;;;;;;5075131;28;20111;-64
2023/10/03 03:38:18;;;;;;;27.13;15.18;;;12.60;99.90;;;;;;5074920;28;20456;-65
2023/10/03 03:40:55;;;;;;;27.33;15.52;;;12.60;99.90;;;;;;5074993;28;20025;-63
2023/10/03 03:43:21;;;;;;;32.10;16.88;;;12.60;99.90;;;;;;5060920;28;20036;-65
2023/10/03 03:45:48;;;;;;;32.03;16.65;;;12.60;99.90;;;;;;5078069;28;20153;-65
2023/10/03 03:48:14;;;;;;;31.17;16.25;;;12.50;99.90;;;;;;5077424;28;20380;-64
2023/10/03 03:50:40;;;;;;;32.65;16.20;;;12.50;99.90;;;;;;5075118;28;20032;-64
2023/10/03 03:53:07;;;;;;;29.60;17.23;;;12.50;99.90;;;;;;5074468;28;20376;-64
2023/10/03 03:55:34;;;;;;;34.33;16.70;;;12.50;99.90;;;;;;5074422;28;20127;-64
2023/10/03 03:58:04;;;;;;;33.10;16.58;;;12.50;99.90;;;;;;5056395;28;20462;-64
2023/10/03 04:00:31;;;;;;;;;;;12.40;99.90;;;;;;5074799;28;20021;-64
2023/10/03 04:02:57;;;;;;;33.35;15.93;;;12.40;99.90;;;;;;5074156;28;19930;-64
2023/10/03 04:05:25;;;;;;;33.70;16.13;;;12.40;99.90;;;;;;5074232;28;20025;-64
2023/10/03 04:07:53;;;;;;;30.20;15.90;;;12.40;99.90;;;;;;5056639;28;20035;-63
2023/10/03 04:10:19;;;;;;;28.50;15.18;;;12.40;99.90;;;;;;5074155;28;20067;-63
2023/10/03 04:12:45;;;;;;;30.52;16.67;;;12.40;99.90;;;;;;5073860;28;20445;-63
2023/10/03 04:15:18;;;;;;;29.35;16.50;;;12.40;99.90;;;;;;5074113;28;20115;-63
2023/10/03 04:17:46;;;;;;;29.02;15.38;;;12.30;99.90;;;;;;5074271;28;20116;-64
2023/10/03 04:20:31;;;;;;;30.25;15.88;;;12.40;99.90;;;;;;5074100;28;20108;-64
2023/10/03 04:23:00;;;;;;;32.20;16.08;;;12.30;99.90;;;;;;5074278;28;20025;-65
2023/10/03 04:25:26;;;;;;;28.73;14.98;;;12.30;99.90;;;;;;5074076;28;20112;-65
2023/10/03 04:27:53;;;;;;;30.30;16.33;;;12.30;99.90;;;;;;5073901;28;20060;-65
2023/10/03 04:30:23;;;;;;;32.75;17.85;;;12.30;99.90;;;;;;5073534;28;20445;-64
2023/10/03 04:32:49;;;;;;;27.85;16.42;;;12.30;99.90;;;;;;5073847;28;20028;-63
2023/10/03 04:35:17;;;;;;;31.65;15.40;;;12.30;99.90;;;;;;5073793;28;20043;-63
2023/10/03 04:37:44;;;;;;;31.10;17.17;;;12.20;99.90;;;;;;5073828;28;20061;-63
2023/10/03 04:40:15;;;;;;;33.15;17.20;;;12.10;99.90;;;;;;5073614;28;20039;-62
2023/10/03 04:42:44;;;;;;;31.75;17.48;;;12.10;99.90;;;;;;5073824;28;20459;-63
2023/10/03 04:45:13;;;;;;;29.05;16.63;;;12.10;99.90;;;;;;5055812;28;20024;-63
2023/10/03 04:47:41;;;;;;;26.52;16.27;;;12.10;99.90;;;;;;5073642;28;20020;-64
2023/10/03 04:50:08;;;;;;;34.70;16.88;;;12.00;99.90;;;;;;5073390;28;20031;-63
2023/10/03 04:52:34;;;;;;;31.20;15.40;;;12.00;99.90;;;;;;5074036;28;20039;-63
2023/10/03 04:54:59;;;;;;;31.08;15.18;;;12.00;99.90;;;;;;5073771;28;20032;-63
2023/10/03 04:57:27;;;;;;;26.95;13.70;;;11.90;99.90;;;;;;5073597;28;20073;-63
2023/10/03 04:59:59;;;;;;;29.40;15.43;;;11.90;99.90;;;;;;5055446;28;20025;-63
2023/10/03 05:02:30;;;;;;;24.80;14.20;;;11.80;99.90;;;;;;5073809;28;20483;-63
2023/10/03 05:04:56;;;;;;;26.58;14.88;;;11.80;99.90;;;;;;5073490;28;20031;-64
2023/10/03 05:07:25;;;;;;;31.27;15.75;;;11.70;99.90;;;;;;5073625;28;20020;-64
2023/10/03 05:09:51;;;;;;;28.38;14.73;;;11.70;99.90;;;;;;5073246;28;20334;-63
2023/10/03 05:12:18;;;;;;;27.77;14.60;;;11.60;99.90;;;;;;5073398;28;20031;-63
2023/10/03 05:14:46;;;;;;;28.02;14.93;;;11.60;99.90;;;;;;5073508;28;20031;-64
2023/10/03 05:17:12;;;;;;;33.28;15.07;;;11.60;99.90;;;;;;5073204;28;20020;-63
2023/10/03 05:19:39;;;;;;;32.17;17.85;;;11.60;99.90;;;;;;5076753;28;20020;-65
2023/10/03 05:22:10;;;;;;;24.25;14.43;;;11.60;99.90;;;;;;5076563;28;20029;-64
2023/10/03 05:24:36;;;;;;;23.50;13.68;;;11.70;99.90;;;;;;5077238;28;20025;-64
2023/10/03 05:27:03;;;;;;;28.77;14.20;;;11.70;99.90;;;;;;5076179;28;20025;-64
2023/10/03 05:29:30;;;;;;;27.50;13.77;;;11.60;99.90;;;;;;5074497;28;20052;-71
2023/10/03 05:31:55;;;;;;;31.23;14.85;;;11.60;99.90;;;;;;5079402;28;20040;-64
2023/10/03 05:34:22;;;;;;;23.55;13.07;;;11.60;99.90;;;;;;5093696;28;20032;-64
2023/10/03 05:36:48;;;;;;;31.52;16.27;;;11.60;99.90;;;;;;5093451;28;20028;-64
2023/10/03 05:39:15;;;;;;;27.05;13.75;;;11.60;99.90;;;;;;5092139;28;20020;-64
2023/10/03 05:41:41;;;;;;;25.58;14.20;;;11.70;99.90;;;;;;5093383;28;20032;-64
2023/10/03 05:44:18;;;;;;;27.25;13.38;;;11.70;99.90;;;;;;5093392;28;20020;-64
2023/10/03 05:46:44;;;;;;;32.58;16.02;;;11.80;99.90;;;;;;5093442;28;20402;-64
2023/10/03 05:49:09;;;;;;;31.15;14.50;;;11.80;99.90;;;;;;5092914;28;20031;-64
2023/10/03 05:51:35;;;;;;;29.10;14.23;;;11.80;99.90;;;;;;5094549;28;20028;-65
2023/10/03 05:54:02;;;;;;;30.15;14.23;;;11.90;99.90;;;;;;5095929;28;20044;-64
2023/10/03 05:56:28;;;;;;;24.10;13.20;;;11.90;99.90;;;;;;5096885;28;20036;-64
2023/10/03 05:58:54;;;;;;;23.80;13.02;;;12.00;99.90;;;;;;5095541;28;20380;-64
2023/10/03 06:01:20;;;;;;;31.02;14.30;;;12.10;99.90;;;;;;5096827;28;20115;-63
2023/10/03 06:03:45;;;;;;;25.58;13.70;;;12.20;99.90;;;;;;5097304;28;20051;-64
2023/10/03 06:06:11;;;;;;;22.80;13.13;;;12.20;99.90;;;;;;5096585;28;20387;-63
2023/10/03 06:08:36;;;;;;;26.42;12.95;;;12.30;99.90;;;;;;5096720;28;20047;-63
2023/10/03 06:11:03;;;;;;;23.65;13.07;;;12.30;99.90;;;;;;5096743;28;20020;-64
2023/10/03 06:13:29;;;;;;;27.15;13.80;;;12.50;99.90;;;;;;5096815;28;20115;-63
2023/10/03 06:15:58;;;;;;;25.15;13.05;;;12.60;99.90;;;;;;5096351;28;20090;-64
2023/10/03 06:18:25;;;;;;;24.27;12.90;;;12.80;99.90;;;;;;5096089;28;20460;-64
2023/10/03 06:20:51;;;;;;;26.70;15.10;;;12.90;99.90;;;;;;5095069;28;20038;-64
2023/10/03 06:23:16;;;;;;;21.63;12.45;;;13.00;99.90;;;;;;5096343;28;20111;-64
2023/10/03 06:25:42;;;;;;;29.85;13.88;;;13.10;99.90;;;;;;5096306;28;20098;-64
2023/10/03 06:28:07;;;;;;;31.02;20.35;;;13.20;99.90;;;;;;5096315;28;20111;-63
2023/10/03 06:30:37;;;;;;;21.85;13.00;;;13.30;99.90;;;;;;5093778;28;20020;-64
2023/10/03 06:33:05;;;;;;;25.83;13.45;;;13.40;99.90;;;;;;5075841;28;20082;-64
2023/10/03 06:35:32;;;;;;;21.10;12.25;;;13.50;99.90;;;;;;5075915;28;20050;-64
2023/10/03 06:37:57;;;;;;;21.90;11.85;;;13.60;99.90;;;;;;5057894;28;20111;-64
2023/10/03 06:40:23;;;;;;;24.10;11.55;;;13.70;99.90;;;;;;5075577;28;20033;-64
2023/10/03 06:42:49;;;;;;;21.00;11.00;;;13.90;99.90;;;;;;5075460;28;20469;-64
2023/10/03 06:45:14;;;;;;;24.95;11.73;;;14.00;99.90;;;;;;5075705;28;20108;-64
2023/10/03 06:47:40;;;;;;;18.40;10.32;;;14.00;99.90;;;;;;5075906;28;20039;-64
2023/10/03 06:50:07;;;;;;;24.83;11.65;;;14.20;99.90;;;;;;5075503;28;20025;-64
2023/10/03 06:52:34;;;;;;;22.02;11.90;;;14.30;99.90;;;;;;5075390;28;20028;-64
2023/10/03 06:55:01;;;;;;;22.95;11.15;;;14.50;99.90;;;;;;5075491;28;20043;-64
2023/10/03 06:57:27;;;;;;;25.17;11.25;;;14.70;99.90;;;;;;5075206;28;20028;-64
2023/10/03 06:59:54;;;;;;;18.30;10.27;;;15.00;99.90;;;;;;5075409;28;20376;-64
2023/10/03 07:02:20;;;;;;;23.35;11.63;;;15.20;99.90;;;;;;5057017;28;20412;-64
2023/10/03 07:04:46;;;;;;;22.42;11.40;;;15.60;99.90;;;;;;5075363;28;20031;-64
2023/10/03 07:07:12;;;;;;;29.73;11.98;;;15.80;99.90;;;;;;5075307;28;20020;-64
2023/10/03 07:09:38;;;;;;;25.90;12.45;;;16.10;99.90;;;;;;5075488;28;20097;-64
2023/10/03 07:12:07;;;;;;;28.10;12.38;;;16.40;99.90;;;;;;5074981;28;20022;-64
2023/10/03 07:14:35;;;;;;;23.88;12.30;;;16.80;99.90;;;;;;5057364;28;20036;-64
2023/10/03 07:17:02;;;;;;;23.42;11.50;;;17.20;99.90;;;;;;5075205;28;20082;-64
2023/10/03 07:19:31;;;;;;;24.88;11.23;;;17.60;99.90;;;;;;5075007;28;20033;-64
2023/10/03 07:21:57;;;;;;;18.95;11.02;;;18.10;99.90;;;;;;5075053;28;20413;-65
2023/10/03 07:24:26;;;;;;;19.65;11.80;;;18.80;99.90;;;;;;5074654;28;20024;-65
2023/10/03 07:26:52;;;;;;;22.08;11.43;;;19.20;99.90;;;;;;5074654;28;20060;-64
2023/10/03 07:29:17;;;;;;;26.63;11.80;;;19.80;99.90;;;;;;5074843;28;20381;-64
2023/10/03 07:31:43;;;;;;;19.25;10.52;;;20.20;99.90;;;;;;5074712;28;20393;-65
2023/10/03 07:34:09;;;;;;;19.85;11.30;;;20.70;99.90;;;;;;5056462;28;20119;-65
2023/10/03 07:36:36;;;;;;;24.05;10.90;;;21.20;99.90;;;;;;5074635;28;20036;-64
2023/10/03 07:39:01;;;;;;;20.17;11.23;;;21.60;99.90;;;;;;5074794;28;20112;-64
2023/10/03 07:41:28;;;;;;;18.67;11.05;;;21.80;99.90;;;;;;5074697;28;20048;-65
2023/10/03 07:43:54;;;;;;;18.33;11.23;;;22.10;99.90;;;;;;5074898;28;20109;-65
2023/10/03 07:46:22;;;;;;;20.77;11.30;;;22.50;99.90;;;;;;5074580;28;20075;-64
2023/10/03 07:48:52;;;;;;;25.98;10.52;;;22.80;99.90;;;;;;5074082;28;20396;-64
2023/10/03 07:51:18;;;;;;;17.42;10.98;;;23.20;99.90;;;;;;5074437;28;20028;-63
2023/10/03 07:53:43;;;;;;;17.95;11.07;;;23.40;99.40;;;;;;5074236;28;20111;-62
2023/10/03 07:56:17;;;;;;;19.38;10.93;;;23.60;98.50;;;;;;5074257;28;20066;-64
2023/10/03 07:58:44;;;;;;;20.23;10.88;;;23.60;98.40;;;;;;5074278;28;20029;-63
2023/10/03 08:01:13;;;;;;;15.88;11.18;;;23.70;98.10;;;;;;5057436;28;20115;-63
2023/10/03 08:03:39;;;;;;;18.85;11.27;;;24.20;96.80;;;;;;5074892;28;20135;-63
2023/10/03 08:06:05;;;;;;;22.48;11.93;;;24.40;96.10;;;;;;5075546;28;20476;-63
2023/10/03 08:08:30;;;;;;;55.45;13.75;;;24.60;95.70;;;;;;5077639;28;20033;-63
2023/10/03 08:10:58;;;;;;;19.98;10.98;;;24.80;95.40;;;;;;5076505;28;20056;-63
2023/10/03 08:13:23;;;;;;;20.50;11.25;;;25.00;94.50;;;;;;5058373;28;20384;-63
2023/10/03 08:15:49;;;;;;;18.23;10.35;;;25.30;93.80;;;;;;5074431;28;20036;-63
2023/10/03 08:18:17;;;;;;;23.30;11.32;;;25.70;93.10;;;;;;5073975;28;20032;-64
2023/10/03 08:20:45;;;;;;;23.42;11.65;;;25.80;92.40;;;;;;5074637;28;20050;-64
2023/10/03 08:23:11;;;;;;;19.75;10.23;;;26.00;91.80;;;;;;5056113;28;20121;-64
2023/10/03 08:25:41;;;;;;;26.42;10.90;;;26.10;91.40;;;;;;5073910;28;20063;-64
2023/10/03 08:28:10;;;;;;;25.08;10.80;;;26.10;91.20;;;;;;5056079;28;20461;-64
2023/10/03 08:30:35;;;;;;;20.23;10.93;;;26.40;90.60;;;;;;5073854;28;20369;-64
2023/10/03 08:33:05;;;;;;;20.92;11.00;;;26.40;90.20;;;;;;5074203;28;20039;-64
2023/10/03 08:35:35;;;;;;;17.33;10.30;;;26.60;90.00;;;;;;5073724;28;20045;-65
2023/10/03 08:38:10;;;;;;;20.80;10.90;;;26.70;88.50;;;;;;5056031;28;20024;-63
2023/10/03 08:40:40;;;;;;;18.38;9.95;;;26.90;87.90;;;;;;5073704;28;20086;-70
2023/10/03 08:43:10;;;;;;;17.75;10.40;;;27.30;86.50;;;;;;5073644;28;20119;-67
2023/10/03 08:45:52;;;;;;;17.58;11.00;;;27.30;85.40;;;;;;5073939;28;20029;-64
2023/10/03 08:48:24;;;;;;;21.08;9.85;;;27.30;84.80;;;;;;5073957;28;20020;-64
2023/10/03 08:50:53;;;;;;;15.05;10.05;;;27.50;84.10;;;;;;5074016;28;20094;-64
2023/10/03 08:53:29;;;;;;;;;;;28.10;82.70;;;;;;5074346;28;20033;-64
2023/10/03 08:56:01;;;;;;;14.25;9.68;;;28.60;80.50;;;;;;5058759;28;20255;-64
2023/10/03 08:58:28;;;;;;;16.48;10.13;;;29.00;78.80;;;;;;5057541;28;20456;-64
2023/10/03 09:00:59;;;;;;;15.25;9.50;;;29.20;76.50;;;;;;5076996;28;20051;-64
2023/10/03 09:03:51;;;;;;;20.17;10.02;;;29.30;75.50;;;;;;5058926;28;20032;-65
2023/10/03 09:06:23;;;;;;;13.68;9.25;;;29.40;75.00;;;;;;5073118;28;20085;-64
2023/10/03 09:09:08;;;;;;;16.45;9.85;;;29.60;73.30;;;;;;5073913;28;20468;-64
2023/10/03 09:11:37;;;;;;;15.70;9.85;;;29.50;73.60;;;;;;5073528;28;20535;-66
2023/10/03 09:14:07;;;;;;;17.77;9.60;;;29.90;72.20;;;;;;5073609;28;20028;-66
2023/10/03 09:16:38;;;;;;;16.92;9.85;;;30.00;70.60;;;;;;5073419;28;20028;-66
2023/10/03 09:19:05;;;;;;;14.45;9.95;;;30.00;70.80;;;;;;5073350;28;20488;-66
2023/10/03 09:21:30;;;;;;;13.70;8.98;;;30.40;69.90;;;;;;5073408;28;20021;-67
2023/10/03 09:26:47;;;;;;;22.85;9.60;;;30.80;67.40;;;;;;5076266;28;20133;-67
2023/10/03 09:29:29;;;;;;;13.18;8.93;;;31.20;66.60;;;;;;5077769;28;20040;-66
2023/10/03 09:31:59;;;;;;;14.20;9.40;;;31.70;65.10;;;;;;5077314;28;20128;-66
2023/10/03 09:34:32;;;;;;;18.27;9.80;;;31.60;64.30;;;;;;5076899;28;20404;-66
2023/10/03 09:37:02;;;;;;;16.52;9.52;;;31.70;64.40;;;;;;5077318;28;20028;-66
2023/10/03 09:39:39;;;;;;;13.55;9.07;;;31.80;63.30;;;;;;5077429;28;20158;-66
2023/10/03 09:42:15;;;;;;;15.50;10.17;;;31.90;62.70;;;;;;5060409;28;20378;-68
2023/10/03 09:44:48;;;;;;;12.73;9.70;;;31.80;62.50;;;;;;5080493;28;20028;-66
2023/10/03 09:47:18;;;;;;;15.15;9.35;;;31.80;61.80;;;;;;5079896;28;20024;-67
2023/10/03 09:49:48;;;;;;;15.48;10.40;;;31.80;62.00;;;;;;5079687;28;20361;-66
2023/10/03 09:52:24;;;;;;;14.20;9.88;;;31.80;61.30;;;;;;5079185;28;20028;-67
2023/10/03 09:54:54;;;;;;;14.73;9.20;;;32.10;61.10;;;;;;5077941;28;20115;-67
2023/10/03 09:57:24;;;;;;;14.95;9.20;;;32.60;60.30;;;;;;5077057;28;20087;-67
2023/10/03 09:59:50;;;;;;;12.15;8.93;;;32.60;59.70;;;;;;5076720;28;20021;-66
2023/10/03 10:02:23;;;;;;;15.93;9.60;;;32.50;59.40;;;;;;5076962;28;20059;-67
2023/10/03 10:04:50;;;;;;;14.38;9.68;;;32.30;59.40;;;;;;5076783;28;20464;-66
2023/10/03 10:07:50;;;;;;;14.47;9.73;;;31.60;60.20;;;;;;5059411;28;20036;-66
2023/10/03 10:10:19;;;;;;;12.35;9.35;;;32.10;59.60;;;;;;5076393;28;20274;-67
2023/10/03 10:13:20;;;;;;;13.73;9.25;;;32.50;59.20;;;;;;5076102;28;20433;-67
2023/10/03 10:16:01;;;;;;;12.23;9.32;;;33.10;58.00;;;;;;5076891;28;20031;-67
2023/10/03 10:18:44;;;;;;;11.90;8.85;;;33.50;56.80;;;;;;5059021;28;20093;-66
2023/10/03 10:21:36;;;;;;;21.83;9.90;;;33.40;56.70;;;;;;5076053;28;20055;-66
2023/10/03 10:24:13;;;;;;;15.68;9.65;;;33.20;56.70;;;;;;5076393;28;20028;-66
2023/10/03 10:26:39;;;;;;;13.30;9.07;;;33.40;56.80;;;;;;5076136;28;20032;-66
2023/10/03 10:29:05;;;;;;;12.80;8.52;;;33.60;55.70;;;;;;5075901;28;20033;-66
2023/10/03 10:31:59;;;;;;;14.00;9.02;;;33.50;55.40;;;;;;5076381;28;20143;-66
2023/10/03 10:34:27;;;;;;;12.07;8.93;;;33.80;55.50;;;;;;5076211;28;20123;-66
2023/10/03 10:37:09;;;;;;;12.40;9.27;;;34.00;55.00;;;;;;5075528;28;20021;-66
2023/10/03 10:39:53;;;;;;;14.98;8.80;;;34.30;54.20;;;;;;5076252;28;20104;-66
2023/10/03 10:42:22;;;;;;;14.73;9.35;;;34.50;53.60;;;;;;5076112;28;20032;-66
2023/10/03 10:45:03;;;;;;;24.30;10.18;;;34.50;53.80;;;;;;5057997;28;20021;-66
2023/10/03 10:47:32;;;;;;;14.25;9.25;;;34.90;53.10;;;;;;5075949;28;20028;-65
2023/10/03 10:49:59;;;;;;;16.10;9.63;;;34.90;52.90;;;;;;5076309;28;20487;-66
2023/10/03 10:52:25;;;;;;;14.63;9.43;;;34.70;52.80;;;;;;5075590;28;20112;-65
2023/10/03 10:54:51;;;;;;;17.15;9.80;;;34.60;53.50;;;;;;5075640;28;20120;-65
2023/10/03 10:57:21;;;;;;;30.33;12.48;;;34.40;53.10;;;;;;5075697;28;20103;-66
2023/10/03 10:59:47;;;;;;;19.27;10.05;;;34.50;53.40;;;;;;5075601;28;20032;-66
2023/10/03 11:02:27;;;;;;;34.45;11.88;;;34.60;52.80;;;;;;5075243;28;20036;-66
2023/10/03 11:04:56;;;;;;;15.15;10.13;;;34.90;52.70;;;;;;5075601;28;20021;-66
2023/10/03 11:07:23;;;;;;;13.93;8.77;;;35.20;52.30;;;;;;5075309;28;20475;-66
2023/10/03 11:09:51;;;;;;;15.23;9.20;;;35.40;51.10;;;;;;5075417;28;20024;-66
2023/10/03 11:12:27;;;;;;;18.25;9.32;;;35.60;51.10;;;;;;5075197;28;20067;-66
2023/10/03 11:14:55;;;;;;;17.27;9.77;;;35.70;50.70;;;;;;5075249;28;20115;-65
2023/10/03 11:17:24;;;;;;;;;;;35.40;50.50;;;;;;5075668;28;20020;-65
2023/10/03 11:19:51;;;;;;;14.23;8.77;;;35.20;50.00;;;;;;5075118;28;19911;-65
2023/10/03 11:22:17;;;;;;;11.40;9.07;;;34.90;50.50;;;;;;5075555;28;20036;-66
2023/10/03 11:24:44;;;;;;;16.75;9.95;;;35.20;49.80;;;;;;5074758;28;20492;-65
2023/10/03 11:27:25;;;;;;;15.45;9.45;;;35.60;50.60;;;;;;5074605;28;20021;-66
2023/10/03 11:29:50;;;;;;;12.85;8.63;;;36.20;49.20;;;;;;5075028;28;20025;-66
2023/10/03 11:32:32;;;;;;;15.45;8.63;;;35.20;49.40;;;;;;5074492;28;20063;-66
2023/10/03 11:34:59;;;;;;;14.20;9.07;;;34.90;50.20;;;;;;5075326;28;20031;-66
2023/10/03 11:37:44;;;;;;;11.93;8.45;;;34.20;51.20;;;;;;5057093;28;20376;-66
2023/10/03 11:40:11;;;;;;;14.55;9.90;;;30.80;48.20;;;;;;5074864;28;20025;-66
2023/10/03 11:42:50;;;;;;;15.23;8.05;;;34.50;51.00;;;;;;5074706;28;20029;-66
2023/10/03 11:45:19;;;;;;;15.55;8.52;;;34.80;51.20;;;;;;5056896;28;20028;-66
2023/10/03 11:48:17;;;;;;;13.45;8.40;;;34.80;50.70;;;;;;5074895;28;20028;-66
2023/10/03 11:50:45;;;;;;;14.35;8.23;;;34.90;50.40;;;;;;5078731;28;20031;-66
2023/10/03 11:53:12;;;;;;;18.10;8.90;;;35.40;50.80;;;;;;5085807;28;20040;-67
2023/10/03 11:55:40;;;;;;;13.70;8.47;;;35.80;50.10;;;;;;5060174;28;20399;-67
2023/10/03 11:58:07;;;;;;;16.52;8.13;;;36.20;49.20;;;;;;5078566;28;20039;-67
2023/10/03 12:00:34;;;;;;;17.87;8.57;;;36.70;49.10;;;;;;5079497;28;20029;-67
2023/10/03 12:02:59;;;;;;;14.18;8.38;;;37.00;48.60;;;;;;5075217;28;20028;-67
2023/10/03 12:05:27;;;;;;;13.70;8.50;;;37.50;48.20;;;;;;5074190;28;20033;-67
2023/10/03 12:07:56;;;;;;;13.63;8.88;;;37.00;48.00;;;;;;5074230;28;20024;-67
2023/10/03 12:10:24;;;;;;;11.32;6.80;;;36.90;47.60;;;;;;5074163;28;20031;-59
2023/10/03 12:12:50;;;;;;;;;;;36.10;49.40;;;;;;5074539;28;20042;-59
2023/10/03 12:15:16;;;;;;;13.65;7.55;;;35.70;49.60;;;;;;5073647;28;19999;-59
2023/10/03 12:17:46;;;;;;;12.52;8.95;;;35.50;50.40;;;;;;5074124;28;20020;-58
2023/10/03 12:20:13;;;;;;;17.08;7.70;;;34.70;49.70;;;;;;5073996;28;20038;-58
2023/10/03 12:22:44;;;;;;;12.85;8.02;;;34.50;51.00;;;;;;5074031;28;20051;-58
2023/10/03 12:25:11;;;;;;;11.40;7.20;;;34.10;51.00;;;;;;5074478;28;20071;-58
2023/10/03 12:27:44;;;;;;;15.13;8.95;;;34.20;52.50;;;;;;5074123;28;20028;-58
2023/10/03 12:30:11;;;;;;;14.77;8.43;;;34.30;51.30;;;;;;5074132;28;20043;-59
2023/10/03 12:32:43;;;;;;;10.98;7.63;;;34.10;52.00;;;;;;5074156;28;20052;-60
2023/10/03 12:35:09;;;;;;;13.00;8.05;;;33.90;52.30;;;;;;5074813;28;20033;-59
2023/10/03 12:37:36;;;;;;;16.83;8.88;;;33.60;52.10;;;;;;5074710;28;20032;-57
2023/10/03 12:40:13;;;;;;;11.63;8.32;;;33.10;53.20;;;;;;5040139;28;20024;-57
2023/10/03 12:42:41;;;;;;;14.63;9.02;;;32.80;53.90;;;;;;5074737;28;20111;-57
2023/10/03 12:45:07;;;;;;;14.60;8.80;;;32.60;54.50;;;;;;5073816;28;20082;-57
2023/10/03 12:47:35;;;;;;;19.35;8.60;;;32.70;53.90;;;;;;5073692;28;20035;-57